Reklama

Seznam meteostanic a jejich METAR

Vyhledat místa podle abecedy:
A B C D E F G H I J K L M N O P Q R S T U V W X Y Z

Filtrovat:

ID stanice:
a/nebo
Název místa (fulltext):
 
Místo (ID)Naposledy načteno 
Yamoussoukro (DIYO) 04.06.2020 08:00 UTC Zobrazit METAR
DIYO 040800Z 24006KT 8000 BKN010 OVC100 25/24 Q1014 NOSIG
Yangon (VYYY) 04.06.2020 03:00 UTC Zobrazit METAR
VYYY 040300Z 16005KT 8000 SCT025 SCT110 31/27 Q1008
Yaounde (FKYS) 04.06.2020 08:00 UTC Zobrazit METAR
FKYS 040800Z 17003KT 140V210 6000 SCT010 22/21 Q1019 NOSIG
Yerevan (UGEE) Zatím nenačteno  
Reklama

Lunární kalendář

  • zítraFáze měsíce uplnek
  • 13.06.Fáze měsíce posl_ctvrt
  • 21.06.Fáze měsíce nov
  • 28.06.Fáze měsíce prv_ctvrt



Reklama
Meteodomečky

Počasí na Váš email

Emaily jsou bez reklamy a bez spamu



Odhlásit newsletter

Reklama


Další české internetové stránky (nejen) o počasí najdete v katalogu TOPlist - weby o počasí nebo vyhledejte na internetu, co jste tu na 🌞 Slunečnu ⛅ zatím nenašli:

Reklama